sensor_id;sensor_type;location;lat;lon;timestamp;pressure;altitude;pressure_sealevel;temperature;humidity
70217;BME280;57608;0.000;0.000;2022-09-09T00:02:10;99871.75;;;19.41;37.55
70217;BME280;57608;0.000;0.000;2022-09-09T00:04:37;99878.78;;;19.42;37.42
70217;BME280;57608;0.000;0.000;2022-09-09T00:07:31;99878.66;;;19.43;37.72
70217;BME280;57608;0.000;0.000;2022-09-09T00:13:32;99876.22;;;19.40;37.54
70217;BME280;57608;0.000;0.000;2022-09-09T00:16:04;99882.59;;;19.38;37.53
70217;BME280;57608;0.000;0.000;2022-09-09T00:21:35;99871.13;;;19.26;37.56
70217;BME280;57608;0.000;0.000;2022-09-09T00:24:11;99881.03;;;19.24;37.79
70217;BME280;57608;0.000;0.000;2022-09-09T00:26:51;99882.13;;;19.21;37.63
70217;BME280;57608;0.000;0.000;2022-09-09T00:29:22;99872.56;;;19.19;37.50
70217;BME280;57608;0.000;0.000;2022-09-09T00:31:57;99873.88;;;19.13;37.70
70217;BME280;57608;0.000;0.000;2022-09-09T00:34:27;99881.75;;;19.14;37.58
70217;BME280;57608;0.000;0.000;2022-09-09T00:36:54;99886.31;;;19.12;37.62
70217;BME280;57608;0.000;0.000;2022-09-09T00:42:18;99894.91;;;19.16;37.57
70217;BME280;57608;0.000;0.000;2022-09-09T00:47:53;99897.19;;;19.09;37.55
70217;BME280;57608;0.000;0.000;2022-09-09T00:58:08;99898.22;;;18.95;37.71
70217;BME280;57608;0.000;0.000;2022-09-09T01:00:44;99902.19;;;18.90;37.71
70217;BME280;57608;0.000;0.000;2022-09-09T01:03:25;99909.91;;;18.93;37.80
70217;BME280;57608;0.000;0.000;2022-09-09T01:09:04;99903.53;;;18.95;37.89
70217;BME280;57608;0.000;0.000;2022-09-09T01:17:05;99908.13;;;19.05;37.69
70217;BME280;57608;0.000;0.000;2022-09-09T01:19:38;99914.06;;;19.08;37.73
70217;BME280;57608;0.000;0.000;2022-09-09T01:22:35;99915.53;;;19.12;37.83
70217;BME280;57608;0.000;0.000;2022-09-09T01:27:51;99922.16;;;19.18;37.66
70217;BME280;57608;0.000;0.000;2022-09-09T01:30:19;99929.41;;;19.16;37.76
70217;BME280;57608;0.000;0.000;2022-09-09T01:32:50;99928.09;;;19.22;37.74
70217;BME280;57608;0.000;0.000;2022-09-09T01:35:34;99932.44;;;19.23;37.88
70217;BME280;57608;0.000;0.000;2022-09-09T01:38:03;99924.72;;;19.20;37.70
70217;BME280;57608;0.000;0.000;2022-09-09T01:40:28;99920.59;;;19.15;37.63
70217;BME280;57608;0.000;0.000;2022-09-09T01:42:54;99940.66;;;19.20;37.72
70217;BME280;57608;0.000;0.000;2022-09-09T01:45:21;99935.56;;;19.17;37.63
70217;BME280;57608;0.000;0.000;2022-09-09T01:47:47;99934.22;;;19.11;37.75
70217;BME280;57608;0.000;0.000;2022-09-09T01:50:15;99936.25;;;19.07;37.91
70217;BME280;57608;0.000;0.000;2022-09-09T01:52:43;99940.00;;;19.05;37.94
70217;BME280;57608;0.000;0.000;2022-09-09T01:55:12;99944.69;;;19.01;37.69
70217;BME280;57608;0.000;0.000;2022-09-09T01:58:20;99945.88;;;18.97;37.98
70217;BME280;57608;0.000;0.000;2022-09-09T02:00:26;99942.59;;;18.93;38.11
70217;BME280;57608;0.000;0.000;2022-09-09T02:03:06;99947.69;;;18.96;38.07
70217;BME280;57608;0.000;0.000;2022-09-09T02:05:45;99948.53;;;18.97;37.98
70217;BME280;57608;0.000;0.000;2022-09-09T02:08:24;99948.53;;;18.97;37.97
70217;BME280;57608;0.000;0.000;2022-09-09T02:11:08;99946.84;;;18.96;38.00
70217;BME280;57608;0.000;0.000;2022-09-09T02:13:37;99940.38;;;18.87;38.12
70217;BME280;57608;0.000;0.000;2022-09-09T02:16:26;99948.16;;;18.90;38.18
70217;BME280;57608;0.000;0.000;2022-09-09T02:19:15;99946.78;;;18.85;38.12
70217;BME280;57608;0.000;0.000;2022-09-09T02:21:48;99958.47;;;18.82;38.14
70217;BME280;57608;0.000;0.000;2022-09-09T02:24:15;99949.00;;;18.78;37.92
70217;BME280;57608;0.000;0.000;2022-09-09T02:26:42;99956.25;;;18.76;38.19
70217;BME280;57608;0.000;0.000;2022-09-09T02:29:14;99963.59;;;18.72;37.99
70217;BME280;57608;0.000;0.000;2022-09-09T02:31:42;99961.81;;;18.73;38.25
70217;BME280;57608;0.000;0.000;2022-09-09T02:34:10;99962.63;;;18.73;38.21
70217;BME280;57608;0.000;0.000;2022-09-09T02:36:40;99969.53;;;18.76;38.15
70217;BME280;57608;0.000;0.000;2022-09-09T02:39:09;99966.50;;;18.80;38.36
70217;BME280;57608;0.000;0.000;2022-09-09T02:41:38;99969.69;;;18.86;38.30
70217;BME280;57608;0.000;0.000;2022-09-09T02:44:14;99970.44;;;18.88;38.35
70217;BME280;57608;0.000;0.000;2022-09-09T02:49:48;99978.94;;;18.93;38.22
70217;BME280;57608;0.000;0.000;2022-09-09T02:52:18;99982.94;;;18.98;38.33
70217;BME280;57608;0.000;0.000;2022-09-09T02:54:49;99982.09;;;18.98;38.23
70217;BME280;57608;0.000;0.000;2022-09-09T02:57:26;99985.25;;;19.03;38.29
70217;BME280;57608;0.000;0.000;2022-09-09T02:59:53;99995.63;;;19.06;38.09
70217;BME280;57608;0.000;0.000;2022-09-09T03:02:20;99992.88;;;19.08;38.14
70217;BME280;57608;0.000;0.000;2022-09-09T03:04:45;99989.25;;;19.09;38.05
70217;BME280;57608;0.000;0.000;2022-09-09T03:07:16;99984.19;;;19.06;38.02
70217;BME280;57608;0.000;0.000;2022-09-09T03:09:42;99993.97;;;19.05;38.04
70217;BME280;57608;0.000;0.000;2022-09-09T03:12:08;99986.34;;;19.01;38.01
70217;BME280;57608;0.000;0.000;2022-09-09T03:14:34;99991.00;;;18.97;38.16
70217;BME280;57608;0.000;0.000;2022-09-09T03:17:00;100001.75;;;18.95;38.08
70217;BME280;57608;0.000;0.000;2022-09-09T03:19:27;99983.19;;;18.82;38.25
70217;BME280;57608;0.000;0.000;2022-09-09T03:21:53;100003.97;;;18.89;38.15
70217;BME280;57608;0.000;0.000;2022-09-09T03:24:19;99997.22;;;18.85;38.14
70217;BME280;57608;0.000;0.000;2022-09-09T03:26:45;99993.06;;;18.80;38.27
70217;BME280;57608;0.000;0.000;2022-09-09T03:29:12;100002.72;;;18.81;38.14
70217;BME280;57608;0.000;0.000;2022-09-09T03:31:38;100006.31;;;18.80;38.37
70217;BME280;57608;0.000;0.000;2022-09-09T03:34:04;100002.00;;;18.79;38.44
70217;BME280;57608;0.000;0.000;2022-09-09T03:36:32;100005.38;;;18.81;38.25
70217;BME280;57608;0.000;0.000;2022-09-09T03:38:58;100007.19;;;18.81;38.38
70217;BME280;57608;0.000;0.000;2022-09-09T03:41:24;100011.88;;;18.77;38.33
70217;BME280;57608;0.000;0.000;2022-09-09T03:43:53;100022.50;;;18.77;38.25
70217;BME280;57608;0.000;0.000;2022-09-09T03:46:20;100021.03;;;18.73;38.25
70217;BME280;57608;0.000;0.000;2022-09-09T03:48:49;100016.25;;;18.65;38.13
70217;BME280;57608;0.000;0.000;2022-09-09T03:51:14;100030.38;;;18.66;38.28
70217;BME280;57608;0.000;0.000;2022-09-09T03:53:41;100032.31;;;18.64;38.32
70217;BME280;57608;0.000;0.000;2022-09-09T03:56:09;100029.84;;;18.61;38.42
70217;BME280;57608;0.000;0.000;2022-09-09T03:58:36;100036.97;;;18.60;38.23
70217;BME280;57608;0.000;0.000;2022-09-09T04:03:29;100031.56;;;18.62;38.49
70217;BME280;57608;0.000;0.000;2022-09-09T04:05:56;100034.84;;;18.65;38.62
70217;BME280;57608;0.000;0.000;2022-09-09T04:08:22;100034.41;;;18.72;38.70
70217;BME280;57608;0.000;0.000;2022-09-09T04:10:50;100031.53;;;18.75;38.72
70217;BME280;57608;0.000;0.000;2022-09-09T04:13:17;100028.63;;;18.78;38.64
70217;BME280;57608;0.000;0.000;2022-09-09T04:15:44;100037.03;;;18.85;39.09
70217;BME280;57608;0.000;0.000;2022-09-09T04:18:15;100034.13;;;18.88;39.15
70217;BME280;57608;0.000;0.000;2022-09-09T04:20:40;100037.34;;;18.93;39.00
70217;BME280;57608;0.000;0.000;2022-09-09T04:23:08;100043.91;;;19.00;38.99
70217;BME280;57608;0.000;0.000;2022-09-09T04:25:34;100042.84;;;19.03;39.12
70217;BME280;57608;0.000;0.000;2022-09-09T04:27:59;100048.44;;;19.11;39.16
70217;BME280;57608;0.000;0.000;2022-09-09T04:30:25;100046.41;;;19.14;39.06
70217;BME280;57608;0.000;0.000;2022-09-09T04:32:52;100046.16;;;19.18;39.05
70217;BME280;57608;0.000;0.000;2022-09-09T04:35:18;100044.00;;;19.23;38.87
70217;BME280;57608;0.000;0.000;2022-09-09T04:37:45;100036.03;;;19.23;38.95
70217;BME280;57608;0.000;0.000;2022-09-09T04:40:10;100048.13;;;19.27;38.83
70217;BME280;57608;0.000;0.000;2022-09-09T04:42:36;100046.66;;;19.23;38.83
70217;BME280;57608;0.000;0.000;2022-09-09T04:45:02;100045.59;;;19.25;38.98
70217;BME280;57608;0.000;0.000;2022-09-09T04:47:28;100044.75;;;19.25;38.88
70217;BME280;57608;0.000;0.000;2022-09-09T04:49:53;100052.50;;;19.28;38.85
70217;BME280;57608;0.000;0.000;2022-09-09T04:52:20;100048.88;;;19.29;38.96
70217;BME280;57608;0.000;0.000;2022-09-09T04:54:45;100052.25;;;19.31;38.99
70217;BME280;57608;0.000;0.000;2022-09-09T04:57:11;100061.72;;;19.35;38.77
70217;BME280;57608;0.000;0.000;2022-09-09T04:59:36;100060.53;;;19.39;38.96
70217;BME280;57608;0.000;0.000;2022-09-09T05:02:02;100054.72;;;19.45;38.90
70217;BME280;57608;0.000;0.000;2022-09-09T05:04:29;100058.63;;;19.53;38.83
70217;BME280;57608;0.000;0.000;2022-09-09T05:06:55;100060.09;;;19.57;38.78
70217;BME280;57608;0.000;0.000;2022-09-09T05:09:20;100064.22;;;19.61;38.86
70217;BME280;57608;0.000;0.000;2022-09-09T05:11:46;100065.91;;;19.62;38.68
70217;BME280;57608;0.000;0.000;2022-09-09T05:14:11;100067.59;;;19.63;38.61
70217;BME280;57608;0.000;0.000;2022-09-09T05:16:37;100074.63;;;19.64;38.61
70217;BME280;57608;0.000;0.000;2022-09-09T05:19:03;100059.88;;;19.60;38.55
70217;BME280;57608;0.000;0.000;2022-09-09T05:21:28;100071.97;;;19.64;38.55
70217;BME280;57608;0.000;0.000;2022-09-09T05:23:56;100075.47;;;19.64;38.41
70217;BME280;57608;0.000;0.000;2022-09-09T05:26:22;100075.81;;;19.60;38.45
70217;BME280;57608;0.000;0.000;2022-09-09T05:28:48;100075.47;;;19.64;38.38
70217;BME280;57608;0.000;0.000;2022-09-09T05:31:17;100079.47;;;19.70;38.28
70217;BME280;57608;0.000;0.000;2022-09-09T05:33:44;100062.91;;;19.67;38.26
70217;BME280;57608;0.000;0.000;2022-09-09T05:36:13;100079.75;;;19.78;38.46
70217;BME280;57608;0.000;0.000;2022-09-09T05:38:39;100081.97;;;19.85;38.60
70217;BME280;57608;0.000;0.000;2022-09-09T05:41:06;100079.81;;;19.90;38.62
70217;BME280;57608;0.000;0.000;2022-09-09T05:43:32;100081.03;;;19.97;38.77
70217;BME280;57608;0.000;0.000;2022-09-09T05:46:04;100089.25;;;20.05;38.69
70217;BME280;57608;0.000;0.000;2022-09-09T05:48:32;100077.44;;;20.09;38.79
70217;BME280;57608;0.000;0.000;2022-09-09T05:50:58;100084.91;;;20.16;38.79
70217;BME280;57608;0.000;0.000;2022-09-09T05:53:25;100079.13;;;20.22;38.88
70217;BME280;57608;0.000;0.000;2022-09-09T05:55:59;100082.53;;;20.24;38.69
70217;BME280;57608;0.000;0.000;2022-09-09T05:58:24;100084.59;;;20.32;38.88
70217;BME280;57608;0.000;0.000;2022-09-09T06:00:50;100088.72;;;20.36;38.81
70217;BME280;57608;0.000;0.000;2022-09-09T06:03:15;100097.41;;;20.38;38.83
70217;BME280;57608;0.000;0.000;2022-09-09T06:05:42;100093.78;;;20.39;38.49
70217;BME280;57608;0.000;0.000;2022-09-09T06:08:07;100092.81;;;20.40;38.52
70217;BME280;57608;0.000;0.000;2022-09-09T06:10:33;100091.97;;;20.39;38.50
70217;BME280;57608;0.000;0.000;2022-09-09T06:12:59;100094.66;;;20.39;38.47
70217;BME280;57608;0.000;0.000;2022-09-09T06:15:25;100100.94;;;20.38;38.51
70217;BME280;57608;0.000;0.000;2022-09-09T06:17:54;100098.25;;;20.38;38.59
70217;BME280;57608;0.000;0.000;2022-09-09T06:20:21;100100.94;;;20.38;38.45
70217;BME280;57608;0.000;0.000;2022-09-09T06:22:47;100098.13;;;20.40;38.58
70217;BME280;57608;0.000;0.000;2022-09-09T06:25:14;100103.34;;;20.41;38.41
70217;BME280;57608;0.000;0.000;2022-09-09T06:27:39;100110.84;;;20.47;38.53
70217;BME280;57608;0.000;0.000;2022-09-09T06:30:06;100112.28;;;20.52;38.56
70217;BME280;57608;0.000;0.000;2022-09-09T06:32:32;100107.72;;;20.54;38.30
70217;BME280;57608;0.000;0.000;2022-09-09T06:34:59;100119.44;;;20.62;38.30
70217;BME280;57608;0.000;0.000;2022-09-09T06:37:26;100118.34;;;20.65;38.38
70217;BME280;57608;0.000;0.000;2022-09-09T06:39:52;100110.03;;;20.70;38.37
70217;BME280;57608;0.000;0.000;2022-09-09T06:42:19;100118.75;;;20.72;38.34
70217;BME280;57608;0.000;0.000;2022-09-09T06:44:45;100120.22;;;20.76;38.12
70217;BME280;57608;0.000;0.000;2022-09-09T06:47:10;100119.25;;;20.77;38.19
70217;BME280;57608;0.000;0.000;2022-09-09T06:49:36;100119.00;;;20.80;38.24
70217;BME280;57608;0.000;0.000;2022-09-09T06:52:01;100122.75;;;20.89;38.12
70217;BME280;57608;0.000;0.000;2022-09-09T06:54:27;100127.69;;;20.93;38.15
70217;BME280;57608;0.000;0.000;2022-09-09T06:56:52;100128.03;;;21.00;38.22
70217;BME280;57608;0.000;0.000;2022-09-09T06:59:18;100134.84;;;21.04;37.78
70217;BME280;57608;0.000;0.000;2022-09-09T07:01:44;100133.47;;;21.10;37.74
70217;BME280;57608;0.000;0.000;2022-09-09T07:04:10;100136.03;;;21.11;37.79
70217;BME280;57608;0.000;0.000;2022-09-09T07:06:41;100135.66;;;21.16;38.10
70217;BME280;57608;0.000;0.000;2022-09-09T07:09:10;100134.31;;;21.22;38.23
70217;BME280;57608;0.000;0.000;2022-09-09T07:11:39;100133.22;;;21.24;38.27
70217;BME280;57608;0.000;0.000;2022-09-09T07:14:05;100132.13;;;21.27;38.27
70217;BME280;57608;0.000;0.000;2022-09-09T07:16:30;100142.41;;;21.32;38.18
70217;BME280;57608;0.000;0.000;2022-09-09T07:19:04;100143.50;;;21.29;38.15
70217;BME280;57608;0.000;0.000;2022-09-09T07:21:32;100140.94;;;21.27;38.01
70217;BME280;57608;0.000;0.000;2022-09-09T07:23:58;100136.47;;;21.28;37.90
70217;BME280;57608;0.000;0.000;2022-09-09T07:26:26;100152.22;;;21.31;37.98
70217;BME280;57608;0.000;0.000;2022-09-09T07:28:51;100150.50;;;21.30;37.99
70217;BME280;57608;0.000;0.000;2022-09-09T07:31:29;100154.41;;;21.26;38.00
70217;BME280;57608;0.000;0.000;2022-09-09T07:34:07;100161.91;;;21.21;37.79
70217;BME280;57608;0.000;0.000;2022-09-09T07:36:34;100161.69;;;21.12;37.93
70217;BME280;57608;0.000;0.000;2022-09-09T07:39:05;100156.72;;;21.08;37.76
70217;BME280;57608;0.000;0.000;2022-09-09T07:41:43;100164.84;;;21.06;37.83
70217;BME280;57608;0.000;0.000;2022-09-09T07:44:16;100170.66;;;21.00;37.85
70217;BME280;57608;0.000;0.000;2022-09-09T07:46:42;100178.06;;;20.96;37.92
70217;BME280;57608;0.000;0.000;2022-09-09T07:49:08;100166.31;;;20.88;37.86
70217;BME280;57608;0.000;0.000;2022-09-09T07:51:39;100183.88;;;20.90;37.93
70217;BME280;57608;0.000;0.000;2022-09-09T07:54:10;100174.19;;;20.89;38.03
70217;BME280;57608;0.000;0.000;2022-09-09T07:56:36;100179.50;;;20.89;38.04
70217;BME280;57608;0.000;0.000;2022-09-09T07:59:02;100182.28;;;20.88;37.86
70217;BME280;57608;0.000;0.000;2022-09-09T08:01:39;100184.22;;;20.86;37.94
70217;BME280;57608;0.000;0.000;2022-09-09T08:04:07;100177.44;;;20.82;38.06
70217;BME280;57608;0.000;0.000;2022-09-09T08:06:40;100184.72;;;20.79;38.08
70217;BME280;57608;0.000;0.000;2022-09-09T08:09:07;100184.94;;;20.76;38.03
70217;BME280;57608;0.000;0.000;2022-09-09T08:11:33;100188.81;;;20.72;37.93
70217;BME280;57608;0.000;0.000;2022-09-09T08:14:01;100188.19;;;20.69;37.92
70217;BME280;57608;0.000;0.000;2022-09-09T08:16:32;100186.72;;;20.64;37.96
70217;BME280;57608;0.000;0.000;2022-09-09T08:18:58;100193.13;;;20.62;38.03
70217;BME280;57608;0.000;0.000;2022-09-09T08:21:26;100186.34;;;20.58;37.86
70217;BME280;57608;0.000;0.000;2022-09-09T08:23:56;100192.31;;;20.61;37.84
70217;BME280;57608;0.000;0.000;2022-09-09T08:26:25;100191.31;;;20.62;37.85
70217;BME280;57608;0.000;0.000;2022-09-09T08:28:53;100196.53;;;20.64;37.90
70217;BME280;57608;0.000;0.000;2022-09-09T08:31:21;100193.00;;;20.63;37.97
70217;BME280;57608;0.000;0.000;2022-09-09T08:33:47;100198.22;;;20.65;37.98
70217;BME280;57608;0.000;0.000;2022-09-09T08:36:18;100199.69;;;20.69;37.84
70217;BME280;57608;0.000;0.000;2022-09-09T08:38:48;100197.03;;;20.69;37.79
70217;BME280;57608;0.000;0.000;2022-09-09T08:44:14;100198.13;;;20.67;37.55
70217;BME280;57608;0.000;0.000;2022-09-09T08:52:44;100194.16;;;20.72;37.38
70217;BME280;57608;0.000;0.000;2022-09-09T09:09:17;100209.69;;;20.54;37.10
70217;BME280;57608;0.000;0.000;2022-09-09T09:11:50;100206.53;;;20.49;37.26
70217;BME280;57608;0.000;0.000;2022-09-09T09:16:55;100212.44;;;20.41;37.27
70217;BME280;57608;0.000;0.000;2022-09-09T09:19:22;100203.84;;;20.38;37.43
70217;BME280;57608;0.000;0.000;2022-09-09T09:24:53;100205.41;;;20.40;38.15
70217;BME280;57608;0.000;0.000;2022-09-09T09:27:40;100197.34;;;20.42;38.21
70217;BME280;57608;0.000;0.000;2022-09-09T09:30:20;100198.44;;;20.39;38.43
70217;BME280;57608;0.000;0.000;2022-09-09T09:35:24;100200.34;;;20.37;38.24
70217;BME280;57608;0.000;0.000;2022-09-09T09:37:50;100208.44;;;20.36;38.31
70217;BME280;57608;0.000;0.000;2022-09-09T09:40:20;100194.78;;;20.29;38.27
70217;BME280;57608;0.000;0.000;2022-09-09T09:42:51;100206.25;;;20.29;38.33
70217;BME280;57608;0.000;0.000;2022-09-09T09:48:19;100195.47;;;20.20;38.31
70217;BME280;57608;0.000;0.000;2022-09-09T09:53:24;100197.06;;;20.22;38.49
70217;BME280;57608;0.000;0.000;2022-09-09T09:58:27;100204.66;;;20.27;38.42
70217;BME280;57608;0.000;0.000;2022-09-09T10:00:53;100201.75;;;20.30;38.61
70217;BME280;57608;0.000;0.000;2022-09-09T10:03:31;100204.22;;;20.33;38.50
70217;BME280;57608;0.000;0.000;2022-09-09T10:05:58;100189.94;;;20.34;38.23
70217;BME280;57608;0.000;0.000;2022-09-09T10:08:24;100203.75;;;20.39;38.31
70217;BME280;57608;0.000;0.000;2022-09-09T10:37:28;100211.69;;;20.28;37.64
70217;BME280;57608;0.000;0.000;2022-09-09T10:40:02;100216.28;;;20.26;37.58
70217;BME280;57608;0.000;0.000;2022-09-09T10:42:32;100206.84;;;20.22;37.50
70217;BME280;57608;0.000;0.000;2022-09-09T10:45:04;100215.78;;;20.21;37.78
70217;BME280;57608;0.000;0.000;2022-09-09T10:47:57;100210.44;;;20.21;37.83
70217;BME280;57608;0.000;0.000;2022-09-09T10:50:40;100201.50;;;20.22;37.84
70217;BME280;57608;0.000;0.000;2022-09-09T10:53:17;100205.13;;;20.21;38.02
70217;BME280;57608;0.000;0.000;2022-09-09T10:55:52;100203.22;;;20.23;37.90
70217;BME280;57608;0.000;0.000;2022-09-09T10:58:31;100204.06;;;20.23;37.84
70217;BME280;57608;0.000;0.000;2022-09-09T11:01:03;100212.41;;;20.19;37.92
70217;BME280;57608;0.000;0.000;2022-09-09T11:03:33;100202.59;;;20.19;37.78
70217;BME280;57608;0.000;0.000;2022-09-09T11:06:16;100216.97;;;20.17;37.72
70217;BME280;57608;0.000;0.000;2022-09-09T11:08:43;100212.84;;;20.12;37.69
70217;BME280;57608;0.000;0.000;2022-09-09T11:11:53;100212.97;;;20.11;37.80
70217;BME280;57608;0.000;0.000;2022-09-09T11:14:42;100207.78;;;20.09;37.84
70217;BME280;57608;0.000;0.000;2022-09-09T11:17:18;100200.97;;;20.05;38.01
70217;BME280;57608;0.000;0.000;2022-09-09T11:19:47;100205.22;;;20.08;37.91
70217;BME280;57608;0.000;0.000;2022-09-09T11:25:08;100220.72;;;20.14;37.97
70217;BME280;57608;0.000;0.000;2022-09-09T11:38:46;100218.59;;;20.30;37.75
70217;BME280;57608;0.000;0.000;2022-09-09T11:41:13;100215.81;;;20.32;37.63
70217;BME280;57608;0.000;0.000;2022-09-09T11:43:41;100222.59;;;20.36;37.62
70217;BME280;57608;0.000;0.000;2022-09-09T11:46:07;100220.69;;;20.38;37.70
70217;BME280;57608;0.000;0.000;2022-09-09T11:48:40;100211.00;;;20.37;37.53
70217;BME280;57608;0.000;0.000;2022-09-09T11:53:58;100216.94;;;20.41;37.60
70217;BME280;57608;0.000;0.000;2022-09-09T11:56:30;100203.75;;;20.39;37.47
70217;BME280;57608;0.000;0.000;2022-09-09T11:59:35;100197.19;;;20.32;37.55
70217;BME280;57608;0.000;0.000;2022-09-09T12:02:18;100208.06;;;20.29;37.45
70217;BME280;57608;0.000;0.000;2022-09-09T12:05:08;100192.56;;;20.23;37.46
70217;BME280;57608;0.000;0.000;2022-09-09T12:07:39;100206.84;;;20.22;37.42
70217;BME280;57608;0.000;0.000;2022-09-09T12:12:35;100203.66;;;20.17;37.45
70217;BME280;57608;0.000;0.000;2022-09-09T12:17:50;100206.44;;;20.15;37.51
70217;BME280;57608;0.000;0.000;2022-09-09T12:20:30;100210.69;;;20.18;37.40
70217;BME280;57608;0.000;0.000;2022-09-09T12:23:20;100205.38;;;20.18;37.34
70217;BME280;57608;0.000;0.000;2022-09-09T12:34:17;100207.97;;;20.06;37.19
70217;BME280;57608;0.000;0.000;2022-09-09T12:36:49;100202.91;;;20.03;37.21
70217;BME280;57608;0.000;0.000;2022-09-09T12:39:18;100205.91;;;19.98;37.14
70217;BME280;57608;0.000;0.000;2022-09-09T12:41:54;100202.53;;;19.96;37.33
70217;BME280;57608;0.000;0.000;2022-09-09T12:44:22;100206.97;;;19.96;37.32
70217;BME280;57608;0.000;0.000;2022-09-09T12:46:48;100206.97;;;19.96;37.19
70217;BME280;57608;0.000;0.000;2022-09-09T12:49:37;100211.22;;;19.98;37.29
70217;BME280;57608;0.000;0.000;2022-09-09T12:52:08;100203.97;;;20.01;37.26
70217;BME280;57608;0.000;0.000;2022-09-09T12:54:36;100199.28;;;20.04;37.17
70217;BME280;57608;0.000;0.000;2022-09-09T12:57:04;100205.22;;;20.08;37.20
70217;BME280;57608;0.000;0.000;2022-09-09T12:59:38;100204.03;;;20.12;37.21
70217;BME280;57608;0.000;0.000;2022-09-09T13:02:25;100200.38;;;20.13;37.36
70217;BME280;57608;0.000;0.000;2022-09-09T13:04:52;100195.81;;;20.15;37.16
70217;BME280;57608;0.000;0.000;2022-09-09T13:07:21;100200.06;;;20.18;37.08
70217;BME280;57608;0.000;0.000;2022-09-09T13:09:48;100205.03;;;20.22;36.99
70217;BME280;57608;0.000;0.000;2022-09-09T13:12:22;100200.44;;;20.24;37.03
70217;BME280;57608;0.000;0.000;2022-09-09T13:14:53;100202.13;;;20.25;37.06
70217;BME280;57608;0.000;0.000;2022-09-09T13:17:24;100204.78;;;20.25;36.90
70217;BME280;57608;0.000;0.000;2022-09-09T13:19:51;100202.00;;;20.27;36.77
70217;BME280;57608;0.000;0.000;2022-09-09T13:22:35;100205.63;;;20.26;37.05
70217;BME280;57608;0.000;0.000;2022-09-09T13:25:05;100210.13;;;20.25;36.69
70217;BME280;57608;0.000;0.000;2022-09-09T13:27:35;100205.03;;;20.22;37.03
70217;BME280;57608;0.000;0.000;2022-09-09T13:30:34;100205.38;;;20.18;36.81
70217;BME280;57608;0.000;0.000;2022-09-09T13:35:30;100206.78;;;20.10;36.65
70217;BME280;57608;0.000;0.000;2022-09-09T13:37:56;100208.84;;;20.07;36.84
70217;BME280;57608;0.000;0.000;2022-09-09T13:40:22;100209.94;;;20.04;36.77
70217;BME280;57608;0.000;0.000;2022-09-09T13:42:52;100202.41;;;19.98;36.87
70217;BME280;57608;0.000;0.000;2022-09-09T13:45:22;100212.69;;;20.03;36.70
70217;BME280;57608;0.000;0.000;2022-09-09T13:47:49;100201.44;;;19.99;36.79
70217;BME280;57608;0.000;0.000;2022-09-09T13:50:26;100208.22;;;20.03;36.80
70217;BME280;57608;0.000;0.000;2022-09-09T13:52:55;100208.22;;;20.03;36.66
70217;BME280;57608;0.000;0.000;2022-09-09T13:55:25;100204.81;;;20.01;36.68
70217;BME280;57608;0.000;0.000;2022-09-09T13:57:52;100198.03;;;19.97;36.59
70217;BME280;57608;0.000;0.000;2022-09-09T14:00:18;100203.59;;;19.94;36.69
70217;BME280;57608;0.000;0.000;2022-09-09T14:02:44;100193.41;;;19.88;36.63
70217;BME280;57608;0.000;0.000;2022-09-09T14:05:10;100186.63;;;19.84;36.72
70217;BME280;57608;0.000;0.000;2022-09-09T14:07:40;100201.63;;;19.85;36.58
70217;BME280;57608;0.000;0.000;2022-09-09T14:10:07;100195.66;;;19.81;36.68
70217;BME280;57608;0.000;0.000;2022-09-09T14:12:33;100186.28;;;19.75;36.67
70217;BME280;57608;0.000;0.000;2022-09-09T14:14:59;100195.03;;;19.77;36.60
70217;BME280;57608;0.000;0.000;2022-09-09T14:17:27;100202.16;;;19.77;36.54
70217;BME280;57608;0.000;0.000;2022-09-09T14:19:55;100191.28;;;19.80;36.56
70217;BME280;57608;0.000;0.000;2022-09-09T14:22:21;100202.59;;;19.84;36.59
70217;BME280;57608;0.000;0.000;2022-09-09T14:24:47;100198.84;;;19.86;36.49
70217;BME280;57608;0.000;0.000;2022-09-09T14:27:13;100200.19;;;19.92;36.64
70217;BME280;57608;0.000;0.000;2022-09-09T14:29:39;100195.63;;;19.94;36.57
70217;BME280;57608;0.000;0.000;2022-09-09T14:32:04;100198.03;;;19.97;36.66
70217;BME280;57608;0.000;0.000;2022-09-09T14:34:30;100197.81;;;20.00;36.59
70217;BME280;57608;0.000;0.000;2022-09-09T14:36:57;100197.47;;;20.05;36.53
70217;BME280;57608;0.000;0.000;2022-09-09T14:39:23;100193.97;;;20.04;36.49
70217;BME280;57608;0.000;0.000;2022-09-09T14:41:48;100186.94;;;20.03;36.51
70217;BME280;57608;0.000;0.000;2022-09-09T14:44:14;100200.00;;;20.06;36.47
70217;BME280;57608;0.000;0.000;2022-09-09T14:46:41;100202.47;;;20.09;36.43
70217;BME280;57608;0.000;0.000;2022-09-09T14:49:07;100199.78;;;20.09;36.35
70217;BME280;57608;0.000;0.000;2022-09-09T14:51:33;100187.78;;;20.04;36.26
70217;BME280;57608;0.000;0.000;2022-09-09T14:53:59;100194.81;;;20.05;36.33
70217;BME280;57608;0.000;0.000;2022-09-09T14:56:27;100189.09;;;19.98;36.29
70217;BME280;57608;0.000;0.000;2022-09-09T14:58:55;100199.94;;;19.95;36.42
70217;BME280;57608;0.000;0.000;2022-09-09T15:01:22;100188.72;;;19.91;36.54
70217;BME280;57608;0.000;0.000;2022-09-09T15:03:53;100192.47;;;19.89;36.46
70217;BME280;57608;0.000;0.000;2022-09-09T15:06:20;100198.97;;;19.85;36.48
70217;BME280;57608;0.000;0.000;2022-09-09T15:08:46;100194.06;;;19.78;36.38
70217;BME280;57608;0.000;0.000;2022-09-09T15:11:14;100190.91;;;19.73;36.50
70217;BME280;57608;0.000;0.000;2022-09-09T15:13:40;100195.78;;;19.79;36.42
70217;BME280;57608;0.000;0.000;2022-09-09T15:16:14;100193.00;;;19.81;36.39
70217;BME280;57608;0.000;0.000;2022-09-09T15:18:41;100201.91;;;19.80;36.42
70217;BME280;57608;0.000;0.000;2022-09-09T15:21:15;100202.03;;;19.78;36.43
70217;BME280;57608;0.000;0.000;2022-09-09T15:23:41;100202.03;;;19.78;36.44
70217;BME280;57608;0.000;0.000;2022-09-09T15:26:07;100198.00;;;19.73;36.25
70217;BME280;57608;0.000;0.000;2022-09-09T15:28:34;100190.50;;;19.67;36.43
70217;BME280;57608;0.000;0.000;2022-09-09T15:31:06;100199.44;;;19.65;36.39
70217;BME280;57608;0.000;0.000;2022-09-09T15:33:33;100202.34;;;19.62;36.29